Harris, Missouri
Current Conditions -  °F | °C
As of 12:35 AM on Saturday 25 Oct 2014 (Local Time) from KTVK Reporting Station
Moderate Fog Moderate Fog  
Wind Chill: 52°   Ceiling: 500
Heat Index: 52°   Visibility: 0.5mi
Dew Point: 52°   Wind: 5mph
Humidity: 100%   Direction: 210°SSW
Pressure: 29.99"   Gusts: NA
Location:  40.31°N, 93.35°W
Report Text: KTVK 250535Z AUTO 21004KT 1/2SM FG VV005 11/11 A2999 RMK AO2
Loading
Personal Weather Stations






























Interactive Weather Map
Tropical Storm Tracking
New forecast layout! Learn more

10-Day Weather Forecast

Advertisements
Track Severe Weather on mobile